Time;durP1;ratioP1;P1;durP2;ratioP2;P2;SDS_P1;SDS_P2;PMS_P1;PMS_P2;Temp;Humidity;BMP_temperature;BMP_pressure;BME280_temperature;BME280_humidity;BME280_pressure;Samples;Min_cycle;Max_cycle;Signal;HPM_P1;HPM_P2
2023/06/01 03:02:33;;;;;;;6.37;2.70;;;24.10;35.30;;;;;;4909308;28;46136;-64
2023/06/01 03:04:59;;;;;;;3.53;2.30;;;24.10;35.30;;;;;;4902221;28;45020;-63
2023/06/01 03:07:25;;;;;;;5.93;2.40;;;24.10;35.40;;;;;;4930304;28;45356;-63
2023/06/01 03:09:50;;;;;;;5.00;2.20;;;24.10;35.40;;;;;;4914477;28;45688;-61
2023/06/01 03:12:16;;;;;;;4.20;2.40;;;24.10;35.40;;;;;;4939760;28;45367;-62
2023/06/01 03:14:41;;;;;;;5.47;2.30;;;24.10;35.50;;;;;;4954401;28;45803;-61
2023/06/01 03:17:07;;;;;;;3.10;2.10;;;24.10;35.60;;;;;;4941407;28;45779;-60
2023/06/01 03:19:32;;;;;;;4.15;2.30;;;24.10;35.50;;;;;;4945962;28;46344;-61
2023/06/01 03:21:58;;;;;;;5.35;2.25;;;24.10;35.50;;;;;;4949159;28;44930;-64
2023/06/01 03:24:26;;;;;;;4.75;2.20;;;24.10;35.50;;;;;;4952284;28;45448;-62
2023/06/01 03:26:51;;;;;;;4.20;2.28;;;24.10;35.50;;;;;;4948564;28;45194;-59
2023/06/01 03:29:17;;;;;;;3.28;2.28;;;24.10;35.50;;;;;;4941749;28;46761;-66
2023/06/01 03:31:42;;;;;;;4.43;2.10;;;24.10;35.50;;;;;;4940198;28;45068;-63
2023/06/01 03:34:08;;;;;;;5.27;2.50;;;24.10;35.50;;;;;;4931304;28;45033;-61
2023/06/01 03:36:35;;;;;;;4.47;2.23;;;24.10;35.50;;;;;;4941816;28;45063;-64
2023/06/01 03:39:05;;;;;;;4.03;2.23;;;24.10;35.50;;;;;;4949324;28;46581;-59
2023/06/01 03:41:31;;;;;;;8.18;2.28;;;24.10;35.50;;;;;;4942935;28;45478;-62
2023/06/01 03:43:56;;;;;;;4.95;2.20;;;24.10;35.50;;;;;;4951058;28;45763;-64
2023/06/01 03:46:22;;;;;;;3.60;1.90;;;24.10;35.60;;;;;;4940315;28;45719;-62
2023/06/01 03:48:48;;;;;;;4.32;2.20;;;24.10;35.60;;;;;;4949027;28;45669;-60
2023/06/01 03:51:13;;;;;;;4.22;2.03;;;24.10;35.70;;;;;;4946299;28;45230;-60
2023/06/01 03:53:39;;;;;;;4.60;2.03;;;24.10;35.70;;;;;;4946126;28;45291;-59
2023/06/01 03:56:05;;;;;;;5.00;2.20;;;24.10;35.70;;;;;;4942420;28;45837;-60
2023/06/01 03:58:30;;;;;;;4.13;2.47;;;24.00;35.70;;;;;;4945431;28;45964;-64
2023/06/01 04:00:56;;;;;;;5.93;3.60;;;24.10;35.70;;;;;;4932532;28;45390;-62
2023/06/01 04:03:23;;;;;;;6.17;2.90;;;24.10;35.70;;;;;;4945240;28;45515;-59
2023/06/01 04:05:58;;;;;;;6.35;3.00;;;24.00;35.70;;;;;;4928100;28;45681;-64
2023/06/01 04:08:24;;;;;;;7.40;2.60;;;24.00;35.80;;;;;;4949459;28;46226;-58
2023/06/01 04:10:50;;;;;;;4.50;2.38;;;24.00;35.80;;;;;;4940811;28;45247;-65
2023/06/01 04:13:15;;;;;;;5.53;2.60;;;24.00;35.90;;;;;;4931603;28;45218;-59
2023/06/01 04:15:41;;;;;;;3.60;2.30;;;23.90;35.90;;;;;;4941243;28;45141;-60
2023/06/01 04:18:07;;;;;;;3.90;2.30;;;23.90;36.00;;;;;;4943433;28;46004;-61
2023/06/01 04:20:32;;;;;;;4.23;2.90;;;23.90;36.00;;;;;;4944141;28;45698;-62
2023/06/01 04:22:58;;;;;;;5.47;2.90;;;23.80;36.10;;;;;;4948745;28;45403;-60
2023/06/01 04:25:24;;;;;;;4.60;2.65;;;23.80;36.10;;;;;;4940539;28;45453;-62
2023/06/01 04:27:51;;;;;;;4.53;2.75;;;23.80;36.20;;;;;;4949108;28;47001;-64
2023/06/01 04:30:16;;;;;;;6.32;3.10;;;23.80;36.20;;;;;;4937786;28;45442;-62
2023/06/01 04:32:44;;;;;;;4.20;2.90;;;23.70;36.20;;;;;;4938169;28;45652;-60
2023/06/01 04:35:09;;;;;;;4.82;3.13;;;23.80;36.30;;;;;;4928702;28;45672;-67
2023/06/01 04:37:41;;;;;;;5.32;2.80;;;23.70;36.30;;;;;;4943781;28;46288;-60
2023/06/01 04:40:10;;;;;;;6.22;3.10;;;23.70;36.40;;;;;;4929913;28;45061;-63
2023/06/01 04:42:38;;;;;;;6.20;2.80;;;23.70;36.50;;;;;;4944658;28;45337;-66
2023/06/01 04:45:07;;;;;;;6.23;2.67;;;23.70;36.50;;;;;;4949186;28;45642;-64
2023/06/01 04:47:37;;;;;;;5.20;2.88;;;23.70;36.60;;;;;;4938722;28;47030;-64
2023/06/01 04:50:08;;;;;;;6.57;2.60;;;23.70;36.70;;;;;;4930758;28;45417;-68
2023/06/01 04:52:35;;;;;;;6.78;2.60;;;23.70;36.80;;;;;;4947805;28;45686;-63
2023/06/01 04:55:01;;;;;;;4.95;2.70;;;23.60;36.80;;;;;;4935551;28;45483;-60
2023/06/01 04:57:26;;;;;;;6.43;2.60;;;23.60;36.90;;;;;;4939100;28;45589;-59
2023/06/01 04:59:56;;;;;;;5.77;2.47;;;23.70;37.60;;;;;;4954754;28;44857;-62
2023/06/01 05:02:23;;;;;;;4.63;2.40;;;23.60;37.00;;;;;;4937200;28;45781;-63
2023/06/01 05:04:48;;;;;;;7.72;2.65;;;23.60;37.10;;;;;;4945821;28;45960;-63
2023/06/01 05:07:14;;;;;;;5.07;2.30;;;23.60;37.20;;;;;;4940824;28;46053;-64
2023/06/01 05:09:40;;;;;;;3.73;2.27;;;23.60;37.20;;;;;;4947126;28;45433;-60
2023/06/01 05:12:06;;;;;;;4.20;2.50;;;23.60;37.20;;;;;;4939710;28;45288;-61
2023/06/01 05:14:32;;;;;;;3.70;2.40;;;23.60;37.30;;;;;;4945066;28;45520;-58
2023/06/01 05:16:57;;;;;;;4.10;2.10;;;23.60;37.30;;;;;;4936607;28;45170;-62
2023/06/01 05:19:23;;;;;;;4.83;2.27;;;23.60;37.30;;;;;;4945642;28;45453;-64
2023/06/01 05:21:48;;;;;;;3.70;2.10;;;23.60;37.40;;;;;;4942155;28;44812;-62
2023/06/01 05:24:14;;;;;;;3.90;2.00;;;23.60;37.50;;;;;;4946621;28;45251;-62
2023/06/01 05:26:40;;;;;;;5.27;2.00;;;23.60;37.50;;;;;;4926177;28;46164;-63
2023/06/01 05:29:05;;;;;;;3.60;2.20;;;23.60;37.60;;;;;;4946365;28;45500;-59
2023/06/01 05:31:31;;;;;;;4.53;2.50;;;23.60;37.60;;;;;;4934729;28;45105;-62
2023/06/01 05:33:56;;;;;;;4.63;2.70;;;23.70;37.70;;;;;;4948114;28;45264;-64
2023/06/01 05:36:22;;;;;;;5.23;2.70;;;23.90;37.20;;;;;;4943927;28;47017;-60
2023/06/01 05:38:48;;;;;;;6.17;2.50;;;24.00;37.00;;;;;;4929670;28;45315;-63
2023/06/01 05:41:13;;;;;;;6.60;2.60;;;23.90;37.20;;;;;;4940420;28;45494;-62
2023/06/01 05:43:39;;;;;;;4.83;2.50;;;23.90;37.30;;;;;;4950368;28;45719;-63
2023/06/01 05:46:06;;;;;;;4.45;2.72;;;23.90;37.40;;;;;;4919990;28;45931;-63
2023/06/01 05:48:31;;;;;;;5.00;2.30;;;23.90;37.30;;;;;;4947807;28;45514;-61
2023/06/01 05:50:57;;;;;;;4.43;2.40;;;23.90;37.40;;;;;;4947343;28;45430;-60
2023/06/01 05:53:24;;;;;;;5.10;2.43;;;23.90;37.50;;;;;;4953143;28;45385;-63
2023/06/01 05:55:51;;;;;;;6.25;2.40;;;23.80;37.50;;;;;;4944976;28;46155;-63
2023/06/01 05:58:17;;;;;;;8.05;2.65;;;23.90;38.20;;;;;;4918344;28;45290;-62
2023/06/01 06:00:42;;;;;;;5.00;2.17;;;23.80;37.60;;;;;;4942169;28;45259;-63
2023/06/01 06:03:08;;;;;;;5.37;2.07;;;23.80;38.20;;;;;;4936499;28;45335;-63
2023/06/01 06:05:33;;;;;;;5.30;2.43;;;23.80;37.60;;;;;;4948207;28;46233;-60
2023/06/01 06:07:59;;;;;;;6.78;2.53;;;23.80;37.60;;;;;;4954433;28;45654;-61
2023/06/01 06:10:24;;;;;;;4.47;2.15;;;23.80;37.60;;;;;;4952567;28;45160;-62
2023/06/01 06:12:50;;;;;;;4.45;2.33;;;23.80;37.60;;;;;;4953812;28;45502;-66
2023/06/01 06:15:16;;;;;;;5.55;2.13;;;23.80;37.60;;;;;;4941590;28;45850;-62
2023/06/01 06:17:42;;;;;;;4.40;2.00;;;23.80;37.70;;;;;;4932964;28;45103;-61
2023/06/01 06:20:09;;;;;;;2.60;1.50;;;23.50;38.10;;;;;;4949518;28;45198;-61
2023/06/01 06:22:35;;;;;;;3.78;1.83;;;23.40;38.40;;;;;;4927158;28;45663;-60
2023/06/01 06:25:01;;;;;;;3.35;1.30;;;23.30;38.60;;;;;;4937906;28;45196;-63
2023/06/01 06:27:26;;;;;;;4.63;1.50;;;23.20;38.70;;;;;;4946876;28;45229;-62
2023/06/01 06:29:52;;;;;;;3.30;1.70;;;23.20;38.70;;;;;;4954712;28;45546;-64
2023/06/01 06:32:19;;;;;;;3.45;1.70;;;23.20;38.80;;;;;;4934349;28;45178;-65
2023/06/01 06:34:45;;;;;;;4.70;1.80;;;23.20;38.80;;;;;;4955301;28;46014;-61
2023/06/01 06:37:11;;;;;;;3.15;1.88;;;23.20;38.80;;;;;;4927322;28;45373;-63
2023/06/01 06:39:37;;;;;;;3.05;1.80;;;23.20;38.80;;;;;;4949460;28;45767;-63
2023/06/01 06:42:03;;;;;;;4.30;1.75;;;23.20;38.90;;;;;;4934424;28;45237;-68
2023/06/01 06:44:29;;;;;;;3.15;1.40;;;23.20;38.90;;;;;;4938931;28;46018;-61
2023/06/01 06:46:55;;;;;;;5.90;1.77;;;23.30;39.00;;;;;;4946594;28;45299;-60
2023/06/01 06:49:20;;;;;;;2.45;1.70;;;23.30;39.00;;;;;;4958721;28;45548;-62
2023/06/01 06:51:46;;;;;;;5.47;1.42;;;23.30;39.00;;;;;;4947866;28;44705;-59
2023/06/01 06:54:12;;;;;;;3.45;1.52;;;23.30;39.00;;;;;;4953415;28;45910;-60
2023/06/01 06:56:37;;;;;;;3.75;1.30;;;23.40;39.00;;;;;;4951096;28;45519;-64
2023/06/01 06:59:03;;;;;;;2.88;1.67;;;23.30;39.20;;;;;;4956087;28;45522;-63
2023/06/01 07:01:28;;;;;;;4.30;1.48;;;23.40;39.00;;;;;;4943706;28;45332;-67
2023/06/01 07:03:55;;;;;;;4.70;1.58;;;23.40;39.10;;;;;;4951918;28;45899;-62
2023/06/01 07:06:21;;;;;;;3.97;1.38;;;23.40;39.00;;;;;;4913393;28;45545;-60
2023/06/01 07:08:46;;;;;;;6.78;1.77;;;23.50;39.00;;;;;;4952006;28;45126;-61
2023/06/01 07:11:12;;;;;;;7.32;1.83;;;23.50;39.00;;;;;;4932722;28;45238;-60
2023/06/01 07:13:37;;;;;;;3.22;1.35;;;23.50;38.90;;;;;;4956531;28;46183;-61
2023/06/01 07:16:04;;;;;;;3.22;1.40;;;23.60;38.90;;;;;;4940693;28;44977;-59
2023/06/01 07:18:30;;;;;;;2.10;1.50;;;23.60;38.80;;;;;;4945173;28;45482;-62
2023/06/01 07:20:56;;;;;;;3.67;1.63;;;23.60;38.70;;;;;;4949292;28;44973;-61
2023/06/01 07:23:22;;;;;;;1.80;1.20;;;23.70;38.80;;;;;;4954339;28;45902;-60
2023/06/01 07:25:47;;;;;;;2.53;1.35;;;23.70;38.70;;;;;;4944888;28;44989;-61
2023/06/01 07:28:13;;;;;;;3.88;1.60;;;23.70;38.70;;;;;;4954070;28;45595;-61
2023/06/01 07:30:39;;;;;;;3.50;1.50;;;23.80;38.70;;;;;;4946454;28;45396;-60
2023/06/01 07:33:04;;;;;;;3.55;1.50;;;23.80;38.70;;;;;;4949162;28;46620;-58
2023/06/01 07:35:30;;;;;;;2.97;1.70;;;23.80;38.60;;;;;;4948322;28;45948;-62
2023/06/01 07:37:55;;;;;;;6.95;1.45;;;23.90;38.60;;;;;;4934857;28;45540;-62
2023/06/01 07:40:21;;;;;;;2.67;1.30;;;23.90;38.50;;;;;;4948766;28;45470;-63
2023/06/01 07:42:47;;;;;;;5.93;1.67;;;23.90;38.50;;;;;;4944995;28;46189;-61
2023/06/01 07:45:13;;;;;;;2.22;1.35;;;24.00;38.40;;;;;;4948343;28;45207;-72
2023/06/01 07:47:38;;;;;;;3.70;1.55;;;24.00;38.20;;;;;;4916182;28;45289;-61
2023/06/01 07:50:05;;;;;;;2.53;1.35;;;24.00;38.20;;;;;;4934342;28;45421;-62
2023/06/01 07:52:31;;;;;;;2.58;1.20;;;24.00;38.30;;;;;;4932336;28;46025;-60
2023/06/01 07:54:57;;;;;;;5.55;1.67;;;24.10;38.30;;;;;;4951935;28;46745;-65
2023/06/01 07:57:23;;;;;;;3.40;1.23;;;24.10;38.10;;;;;;4948248;28;45041;-63
2023/06/01 07:59:49;;;;;;;2.00;1.50;;;24.10;38.10;;;;;;4953205;28;45167;-62
2023/06/01 08:02:14;;;;;;;2.38;1.30;;;24.20;38.10;;;;;;4940318;28;46174;-61
2023/06/01 08:04:40;;;;;;;2.22;1.13;;;24.20;37.90;;;;;;4947005;28;45638;-64
2023/06/01 08:07:07;;;;;;;6.15;1.30;;;24.30;37.90;;;;;;4944525;28;45368;-63
2023/06/01 08:09:33;;;;;;;2.35;1.30;;;24.30;37.90;;;;;;4952673;28;45395;-64
2023/06/01 08:11:58;;;;;;;4.78;1.60;;;24.30;37.80;;;;;;4949268;28;46345;-62
2023/06/01 08:14:24;;;;;;;3.63;1.50;;;24.40;37.70;;;;;;4932162;28;45421;-62
2023/06/01 08:16:51;;;;;;;4.43;1.60;;;24.40;37.70;;;;;;4944412;28;44857;-62
2023/06/01 08:19:17;;;;;;;4.10;1.55;;;24.40;37.50;;;;;;4953846;28;45387;-62
2023/06/01 08:21:43;;;;;;;3.30;1.42;;;24.40;37.60;;;;;;4946944;28;46269;-63
2023/06/01 08:24:08;;;;;;;3.67;1.60;;;24.50;37.50;;;;;;4937515;28;45476;-62
2023/06/01 08:26:35;;;;;;;4.07;1.52;;;24.50;37.30;;;;;;4947226;28;45558;-61
2023/06/01 08:29:00;;;;;;;4.82;1.50;;;24.50;37.30;;;;;;4939314;28;45529;-63
2023/06/01 08:31:26;;;;;;;1.95;1.30;;;24.60;37.40;;;;;;4939316;28;47231;-62
2023/06/01 08:33:52;;;;;;;3.67;1.33;;;24.60;37.10;;;;;;4937466;28;45805;-61
2023/06/01 08:36:18;;;;;;;4.40;1.20;;;24.70;37.20;;;;;;4914388;28;45466;-62
2023/06/01 08:38:44;;;;;;;5.65;1.45;;;24.70;37.00;;;;;;4934148;28;44792;-63
2023/06/01 08:41:32;;;;;;;2.92;1.20;;;24.70;37.00;;;;;;4949216;28;46277;-63
2023/06/01 08:44:02;;;;;;;2.90;1.00;;;24.70;36.90;;;;;;4945842;28;45077;-63
2023/06/01 08:46:29;;;;;;;3.83;1.55;;;24.80;37.00;;;;;;4922930;28;46182;-71
2023/06/01 08:48:55;;;;;;;3.75;1.15;;;24.90;37.10;;;;;;4935046;28;45530;-63
2023/06/01 08:51:24;;;;;;;1.38;1.00;;;24.90;36.90;;;;;;4930939;28;45983;-62
2023/06/01 08:53:50;;;;;;;3.67;1.33;;;24.90;36.90;;;;;;4935725;28;45180;-61
2023/06/01 08:56:15;;;;;;;2.10;1.77;;;24.90;36.70;;;;;;4950259;28;45487;-64
2023/06/01 08:58:41;;;;;;;2.72;1.33;;;25.00;36.70;;;;;;4953104;28;44689;-62
2023/06/01 09:01:07;;;;;;;2.45;1.30;;;25.00;36.50;;;;;;4907100;28;45473;-58
2023/06/01 09:03:32;;;;;;;2.38;1.20;;;25.10;36.40;;;;;;4951671;28;45264;-62
2023/06/01 09:05:58;;;;;;;3.47;1.27;;;25.10;36.30;;;;;;4932192;28;44859;-61
2023/06/01 09:08:24;;;;;;;3.00;1.33;;;25.10;35.80;;;;;;4948405;28;45145;-61
2023/06/01 09:10:49;;;;;;;3.60;1.30;;;25.10;35.80;;;;;;4947720;28;45581;-61
2023/06/01 09:13:33;;;;;;;3.38;1.35;;;25.20;35.80;;;;;;4953297;28;45213;-62
2023/06/01 09:15:59;;;;;;;2.22;1.38;;;25.20;34.90;;;;;;4941972;28;45769;-71
2023/06/01 09:18:25;;;;;;;2.08;1.40;;;25.20;35.10;;;;;;4949148;28;45486;-63
2023/06/01 09:20:53;;;;;;;3.95;1.48;;;25.20;34.80;;;;;;4929246;28;45946;-58
2023/06/01 09:23:27;;;;;;;1.63;1.15;;;25.30;34.70;;;;;;4924079;28;44667;-65
2023/06/01 09:26:06;;;;;;;3.58;1.75;;;25.30;34.40;;;;;;4947138;28;45127;-62
2023/06/01 09:29:00;;;;;;;4.90;1.20;;;25.30;34.10;;;;;;4949021;28;45488;-63
2023/06/01 09:31:42;;;;;;;3.13;1.00;;;25.30;34.20;;;;;;4938855;28;46423;-61
2023/06/01 09:34:19;;;;;;;2.13;1.10;;;25.40;34.50;;;;;;4936096;28;44580;-61
2023/06/01 09:36:54;;;;;;;1.92;1.27;;;25.40;34.50;;;;;;4950815;28;45523;-62
2023/06/01 09:39:21;;;;;;;3.50;1.48;;;25.50;34.50;;;;;;4949136;28;45304;-61
2023/06/01 09:41:54;;;;;;;2.08;1.10;;;25.50;34.70;;;;;;4947447;28;45902;-63
2023/06/01 09:44:30;;;;;;;1.80;1.10;;;25.50;34.60;;;;;;4951410;28;45635;-60
2023/06/01 09:47:03;;;;;;;2.50;1.10;;;25.50;34.60;;;;;;4942699;28;45475;-61
2023/06/01 09:49:30;;;;;;;2.42;1.08;;;25.60;34.50;;;;;;4947902;28;45602;-65
2023/06/01 09:52:04;;;;;;;4.20;1.33;;;25.60;34.50;;;;;;4942669;28;47195;-60
2023/06/01 09:54:34;;;;;;;2.17;1.27;;;25.60;33.90;;;;;;4951432;28;45370;-60
2023/06/01 09:57:01;;;;;;;5.93;1.20;;;25.60;34.00;;;;;;4931238;28;45330;-60
2023/06/01 09:59:30;;;;;;;1.80;1.10;;;25.60;34.30;;;;;;4926282;28;44989;-63
2023/06/01 10:01:57;;;;;;;1.63;1.10;;;25.60;34.00;;;;;;4937970;28;46030;-60
2023/06/01 10:04:24;;;;;;;1.95;1.27;;;25.60;34.00;;;;;;4951322;28;45247;-61
2023/06/01 10:06:51;;;;;;;1.50;0.93;;;25.60;33.90;;;;;;4942481;28;45686;-61
2023/06/01 10:09:19;;;;;;;2.60;1.00;;;25.70;34.00;;;;;;4933139;28;45249;-61
2023/06/01 10:11:45;;;;;;;2.40;1.20;;;25.70;34.00;;;;;;4945993;28;46052;-61
2023/06/01 10:14:10;;;;;;;2.28;1.20;;;25.70;34.00;;;;;;4935660;28;45643;-65
2023/06/01 10:16:36;;;;;;;2.40;1.00;;;25.70;34.00;;;;;;4923874;28;45482;-62
2023/06/01 10:19:02;;;;;;;3.97;1.08;;;25.80;34.20;;;;;;4935992;28;45462;-63
2023/06/01 10:21:28;;;;;;;5.60;1.20;;;25.80;34.00;;;;;;4946421;28;45913;-61
2023/06/01 10:23:54;;;;;;;4.28;1.50;;;25.80;33.90;;;;;;4923421;28;45627;-61
2023/06/01 10:26:19;;;;;;;1.80;1.40;;;25.80;34.10;;;;;;4917278;28;44698;-60
2023/06/01 10:28:45;;;;;;;2.42;1.00;;;25.80;33.90;;;;;;4939515;28;45358;-61
2023/06/01 10:31:42;;;;;;;2.70;1.27;;;25.80;34.00;;;;;;4940110;28;45901;-61
2023/06/01 10:34:09;;;;;;;2.25;1.40;;;25.90;33.80;;;;;;4952815;28;45241;-61
2023/06/01 10:36:58;;;;;;;3.42;1.00;;;25.90;34.00;;;;;;4947985;28;45570;-59
2023/06/01 10:39:30;;;;;;;4.78;1.15;;;26.00;33.90;;;;;;4936433;28;45223;-61
2023/06/01 10:42:12;;;;;;;7.57;1.50;;;26.00;34.00;;;;;;4949474;28;47043;-58
2023/06/01 10:44:38;;;;;;;5.70;1.30;;;26.00;33.80;;;;;;4955401;28;45269;-62
2023/06/01 10:47:03;;;;;;;1.88;1.10;;;26.00;33.80;;;;;;4945361;28;45364;-65
2023/06/01 10:49:48;;;;;;;3.22;1.10;;;26.10;33.60;;;;;;4958296;28;45039;-61
2023/06/01 10:52:33;;;;;;;3.60;1.17;;;26.10;33.20;;;;;;4947204;28;45445;-59
2023/06/01 10:55:11;;;;;;;3.70;1.00;;;26.10;33.40;;;;;;4959259;28;45501;-61
2023/06/01 10:57:37;;;;;;;1.98;1.30;;;26.10;33.50;;;;;;4956888;28;45172;-62
2023/06/01 11:00:15;;;;;;;3.40;1.30;;;26.10;33.50;;;;;;4940055;28;45336;-70
2023/06/01 11:02:57;;;;;;;1.80;1.10;;;26.10;33.30;;;;;;4927323;28;46065;-60
2023/06/01 11:05:43;;;;;;;3.67;1.23;;;26.10;33.10;;;;;;4927778;28;45535;-62
2023/06/01 11:08:21;;;;;;;3.58;1.30;;;26.10;33.10;;;;;;4921332;28;45642;-61
2023/06/01 11:10:53;;;;;;;2.42;1.13;;;26.10;33.10;;;;;;4931059;28;45134;-62
2023/06/01 11:13:19;;;;;;;3.45;1.33;;;26.20;32.90;;;;;;4940162;28;46879;-60
2023/06/01 11:16:03;;;;;;;2.47;1.30;;;26.20;32.80;;;;;;4928239;28;46981;-61
2023/06/01 11:18:41;;;;;;;2.45;1.63;;;26.20;32.50;;;;;;4938456;28;45536;-61
2023/06/01 11:21:26;;;;;;;3.67;1.30;;;26.20;32.70;;;;;;4929351;28;45655;-61
2023/06/01 11:23:52;;;;;;;3.97;1.27;;;26.20;32.30;;;;;;4936121;28;45372;-59
2023/06/01 11:26:18;;;;;;;2.55;1.20;;;26.30;32.70;;;;;;4929465;28;45304;-67
2023/06/01 11:28:45;;;;;;;3.17;1.30;;;26.30;32.70;;;;;;4937642;28;45321;-58
2023/06/01 11:31:15;;;;;;;1.90;1.30;;;26.30;32.70;;;;;;4930571;28;45563;-59
2023/06/01 11:33:41;;;;;;;3.25;1.27;;;26.40;32.80;;;;;;4932782;28;46201;-64
2023/06/01 11:36:10;;;;;;;3.08;1.30;;;26.40;32.80;;;;;;4901094;28;45289;-65
2023/06/01 11:38:38;;;;;;;3.75;0.93;;;26.40;32.80;;;;;;4914540;28;45314;-66
2023/06/01 11:41:04;;;;;;;2.20;1.00;;;26.40;32.20;;;;;;4931886;28;44877;-59
2023/06/01 11:43:30;;;;;;;3.00;1.30;;;26.50;32.20;;;;;;4935760;28;45962;-57
2023/06/01 11:46:06;;;;;;;1.55;0.95;;;26.40;32.30;;;;;;4929340;28;45155;-62
2023/06/01 11:48:32;;;;;;;3.42;1.17;;;26.50;32.20;;;;;;4916482;28;45867;-60
2023/06/01 11:51:00;;;;;;;2.55;1.30;;;26.50;32.50;;;;;;4932397;28;45836;-63
2023/06/01 11:53:26;;;;;;;6.88;1.30;;;26.50;32.40;;;;;;4935284;28;46172;-64
2023/06/01 11:55:53;;;;;;;3.05;0.93;;;26.50;32.20;;;;;;4932092;28;45238;-55
2023/06/01 11:58:26;;;;;;;2.53;1.33;;;26.60;32.10;;;;;;4937278;28;45313;-59
2023/06/01 12:00:52;;;;;;;2.10;0.98;;;26.60;32.00;;;;;;4929957;28;45503;-59
2023/06/01 12:03:17;;;;;;;1.80;1.05;;;26.60;32.00;;;;;;4952763;28;46092;-60
2023/06/01 12:05:47;;;;;;;4.20;1.15;;;26.60;32.00;;;;;;4953144;28;45248;-59
2023/06/01 12:08:23;;;;;;;2.10;1.08;;;26.60;32.00;;;;;;4955605;28;45279;-61
2023/06/01 12:10:50;;;;;;;1.83;1.23;;;26.60;32.00;;;;;;4934261;28;45318;-56
2023/06/01 12:13:17;;;;;;;6.95;1.10;;;26.60;31.80;;;;;;4957574;28;46981;-60
2023/06/01 12:15:43;;;;;;;2.60;1.38;;;26.70;31.80;;;;;;4932310;28;45117;-62
2023/06/01 12:18:09;;;;;;;5.50;1.27;;;26.70;31.70;;;;;;4955681;28;45384;-62
2023/06/01 12:20:35;;;;;;;1.70;1.27;;;26.70;31.70;;;;;;4949491;28;45006;-60
2023/06/01 12:23:21;;;;;;;2.53;1.40;;;26.70;31.80;;;;;;4954731;28;45461;-59
2023/06/01 12:25:58;;;;;;;3.55;1.02;;;26.80;31.90;;;;;;4950431;28;45144;-62
2023/06/01 12:28:25;;;;;;;1.63;0.90;;;26.80;32.00;;;;;;4956491;28;44707;-61
2023/06/01 12:31:07;;;;;;;1.92;1.13;;;26.80;32.10;;;;;;4946133;28;44819;-62
2023/06/01 12:33:35;;;;;;;4.82;1.23;;;26.80;31.80;;;;;;4918707;28;46132;-60
2023/06/01 12:36:01;;;;;;;2.00;1.33;;;26.80;32.10;;;;;;4952025;28;44743;-61
2023/06/01 12:38:26;;;;;;;5.47;1.50;;;26.80;32.70;;;;;;4957376;28;45330;-61
2023/06/01 12:41:07;;;;;;;3.15;1.13;;;26.90;32.00;;;;;;4950423;28;44986;-57
2023/06/01 12:43:34;;;;;;;2.67;0.90;;;26.90;31.80;;;;;;4953293;28;45240;-59
2023/06/01 12:46:01;;;;;;;5.50;1.30;;;26.90;32.10;;;;;;4930358;28;45266;-60
2023/06/01 12:48:31;;;;;;;2.50;1.30;;;26.90;32.00;;;;;;4959590;28;45369;-58
2023/06/01 12:50:57;;;;;;;2.97;1.10;;;26.90;32.00;;;;;;4948983;28;44682;-60
2023/06/01 12:53:23;;;;;;;1.90;1.33;;;26.90;32.00;;;;;;4955484;28;46141;-60
2023/06/01 12:55:48;;;;;;;3.17;1.02;;;26.90;32.20;;;;;;4948732;28;45256;-62
2023/06/01 12:58:14;;;;;;;3.20;1.00;;;26.90;32.00;;;;;;4958029;28;45243;-55
2023/06/01 13:00:39;;;;;;;5.28;1.30;;;27.00;32.10;;;;;;4946563;28;45339;-67
2023/06/01 13:03:07;;;;;;;1.63;1.08;;;27.00;32.10;;;;;;4954319;28;46121;-61
2023/06/01 13:05:32;;;;;;;1.88;1.20;;;27.00;32.20;;;;;;4950411;28;45812;-57
2023/06/01 13:07:59;;;;;;;4.07;1.40;;;27.00;32.10;;;;;;4957531;28;45081;-59
2023/06/01 13:10:25;;;;;;;2.45;1.23;;;27.00;32.10;;;;;;4948955;28;45326;-62
2023/06/01 13:12:51;;;;;;;1.33;0.90;;;27.10;32.30;;;;;;4951613;28;46009;-62
2023/06/01 13:15:17;;;;;;;2.13;1.40;;;27.10;32.20;;;;;;4950371;28;45441;-59
2023/06/01 13:17:42;;;;;;;2.58;1.25;;;27.10;32.20;;;;;;4953977;28;45646;-58
2023/06/01 13:20:10;;;;;;;2.53;1.23;;;27.10;32.30;;;;;;4949560;28;45441;-58
2023/06/01 13:22:37;;;;;;;4.80;1.30;;;27.20;32.20;;;;;;4955152;28;45888;-57
2023/06/01 13:25:04;;;;;;;2.30;1.00;;;27.20;32.10;;;;;;4955042;28;44909;-66
2023/06/01 13:27:30;;;;;;;3.05;1.23;;;27.20;32.00;;;;;;4898124;28;44850;-59
2023/06/01 13:29:56;;;;;;;1.70;1.20;;;27.20;32.10;;;;;;4953684;28;45493;-60
2023/06/01 13:32:21;;;;;;;1.75;1.02;;;27.20;31.90;;;;;;4945226;28;45866;-55
2023/06/01 13:34:47;;;;;;;1.70;1.08;;;27.30;32.50;;;;;;4950768;28;45139;-60
2023/06/01 13:37:13;;;;;;;1.50;1.13;;;27.30;31.90;;;;;;4950427;28;45889;-60
2023/06/01 13:39:39;;;;;;;2.45;1.50;;;27.30;31.80;;;;;;4953008;28;45843;-60
2023/06/01 13:42:06;;;;;;;2.25;1.33;;;27.30;31.40;;;;;;4942129;28;46289;-61
2023/06/01 13:44:32;;;;;;;2.72;1.30;;;27.40;31.40;;;;;;4959158;28;44627;-59
2023/06/01 13:46:58;;;;;;;4.07;1.40;;;27.40;31.30;;;;;;4943455;28;45428;-56
2023/06/01 13:49:24;;;;;;;2.70;1.27;;;27.40;31.20;;;;;;4953360;28;45521;-59
2023/06/01 13:51:49;;;;;;;3.28;1.45;;;27.40;31.10;;;;;;4949426;28;45564;-61
2023/06/01 13:54:15;;;;;;;2.55;1.10;;;27.40;31.10;;;;;;4951344;28;44590;-63
2023/06/01 13:56:40;;;;;;;1.73;1.00;;;27.40;30.90;;;;;;4947174;28;45255;-60
2023/06/01 13:59:06;;;;;;;1.85;1.10;;;27.40;30.90;;;;;;4936101;28;46211;-62
2023/06/01 14:01:31;;;;;;;1.63;1.08;;;27.50;30.80;;;;;;4942556;28;46062;-59
2023/06/01 14:03:57;;;;;;;2.60;1.02;;;27.50;30.80;;;;;;4948536;28;45259;-60
2023/06/01 14:06:22;;;;;;;2.50;1.20;;;27.50;30.60;;;;;;4950420;28;46332;-59
2023/06/01 14:08:48;;;;;;;6.07;1.15;;;27.50;30.60;;;;;;4952019;28;45498;-67
2023/06/01 14:11:14;;;;;;;3.70;1.40;;;27.50;31.10;;;;;;4946859;28;46113;-60
2023/06/01 14:13:40;;;;;;;1.65;1.00;;;27.50;30.40;;;;;;4950460;28;44656;-58
2023/06/01 14:16:05;;;;;;;4.38;1.20;;;27.60;30.40;;;;;;4944396;28;45239;-58
2023/06/01 14:18:31;;;;;;;2.88;1.20;;;27.60;30.50;;;;;;4950601;28;45395;-60
2023/06/01 14:20:58;;;;;;;3.63;0.98;;;27.60;30.50;;;;;;4944165;28;46187;-56
2023/06/01 14:23:24;;;;;;;2.95;1.00;;;27.60;30.50;;;;;;4958498;28;45591;-61
2023/06/01 14:25:49;;;;;;;2.75;0.90;;;27.60;30.50;;;;;;4955136;28;45450;-66
2023/06/01 14:28:15;;;;;;;1.48;0.90;;;27.60;30.50;;;;;;4940128;28;45536;-57
2023/06/01 14:30:40;;;;;;;1.02;0.90;;;27.60;30.60;;;;;;4949790;28;46205;-61
2023/06/01 14:33:06;;;;;;;2.50;1.10;;;27.60;30.60;;;;;;4957123;28;45199;-59
2023/06/01 14:35:33;;;;;;;1.80;1.10;;;27.60;30.70;;;;;;4950655;28;45366;-59
2023/06/01 14:37:58;;;;;;;1.63;1.10;;;27.60;30.60;;;;;;4956478;28;45535;-61
2023/06/01 14:40:24;;;;;;;1.83;1.20;;;27.70;30.50;;;;;;4951482;28;46335;-54
2023/06/01 14:42:50;;;;;;;2.10;0.90;;;27.70;30.30;;;;;;4956538;28;45298;-60
2023/06/01 14:45:15;;;;;;;3.45;1.10;;;27.70;30.20;;;;;;4935940;28;45241;-60
2023/06/01 14:47:41;;;;;;;2.05;1.15;;;27.80;30.20;;;;;;4954989;28;45256;-59
2023/06/01 14:50:08;;;;;;;1.60;0.98;;;27.80;30.20;;;;;;4951158;28;45979;-60
2023/06/01 14:52:33;;;;;;;3.78;1.50;;;27.80;30.00;;;;;;4955163;28;44717;-65
2023/06/01 14:54:59;;;;;;;4.88;1.00;;;27.80;30.00;;;;;;4961746;28;45355;-58
2023/06/01 14:57:24;;;;;;;1.30;1.10;;;27.80;29.80;;;;;;4953299;28;45449;-57
2023/06/01 14:59:50;;;;;;;2.03;1.10;;;27.90;29.70;;;;;;4960069;28;46842;-56
2023/06/01 15:02:16;;;;;;;3.65;1.35;;;27.90;29.70;;;;;;4944650;28;45621;-57
2023/06/01 15:04:43;;;;;;;2.63;1.20;;;27.90;29.60;;;;;;4940987;28;45511;-60
2023/06/01 15:07:08;;;;;;;1.63;1.17;;;27.90;29.70;;;;;;4949645;28;44725;-58
2023/06/01 15:09:34;;;;;;;5.32;1.17;;;27.90;29.70;;;;;;4957372;28;47102;-61
2023/06/01 15:11:59;;;;;;;2.25;1.20;;;27.90;29.70;;;;;;4951775;28;45406;-56
2023/06/01 15:14:25;;;;;;;7.78;1.17;;;27.80;29.70;;;;;;4957207;28;45426;-56
2023/06/01 15:16:50;;;;;;;3.35;1.35;;;27.90;29.70;;;;;;4948417;28;45329;-64
2023/06/01 15:19:16;;;;;;;3.88;1.30;;;27.90;29.70;;;;;;4939002;28;47165;-61
2023/06/01 15:21:41;;;;;;;7.45;1.20;;;27.90;29.80;;;;;;4954220;28;45569;-57
2023/06/01 15:24:07;;;;;;;5.03;1.02;;;27.90;29.70;;;;;;4957913;28;44723;-57
2023/06/01 15:26:32;;;;;;;2.65;1.17;;;27.90;29.70;;;;;;4952517;28;45369;-57
2023/06/01 15:28:58;;;;;;;5.25;1.27;;;27.90;29.70;;;;;;4956145;28;46862;-55
2023/06/01 15:31:23;;;;;;;1.60;1.20;;;27.90;29.70;;;;;;4950896;28;45793;-56
2023/06/01 15:33:49;;;;;;;3.63;1.00;;;27.90;29.70;;;;;;4962237;28;45153;-59
2023/06/01 15:36:14;;;;;;;4.85;1.20;;;27.90;29.70;;;;;;4948188;28;45265;-56
2023/06/01 15:38:40;;;;;;;2.80;1.25;;;27.90;29.80;;;;;;4940007;28;46446;-58
2023/06/01 15:41:06;;;;;;;3.55;1.15;;;27.90;29.80;;;;;;4951891;28;45429;-57
2023/06/01 15:43:34;;;;;;;3.92;1.00;;;27.90;29.80;;;;;;4961972;28;44774;-58
2023/06/01 15:46:00;;;;;;;2.50;1.20;;;27.90;29.70;;;;;;4942964;28;45218;-62
2023/06/01 15:48:25;;;;;;;2.17;0.90;;;27.90;29.70;;;;;;4951636;28;45990;-56
2023/06/01 15:50:51;;;;;;;4.95;1.00;;;27.90;29.70;;;;;;4950407;28;45380;-60